Osterville, Massachusetts
Current Conditions -  °F | °C
As of 1:56 AM on Friday 19 Dec 2014 (Local Time) from KHYA Reporting Station
Clear Clear  
Wind Chill: 27°   Ceiling: Unl
Heat Index: 34°   Visibility: 10mi
Dew Point: 27°   Wind: 8mph
Humidity: 75%   Direction: 270°W
Pressure: 29.85"   Gusts: NA
Location:  41.63°N, 70.39°W
Report Text: KHYA 190656Z AUTO 27007KT 10SM CLR 01/M03 A2985 RMK AO2 SLP109 T00111028
Loading
Personal Weather Stations






























Interactive Weather Map New forecast layout! Learn more

10-Day Weather Forecast

Advertisements
Track Severe Weather on mobile